Time;durP1;ratioP1;P1;durP2;ratioP2;P2;SDS_P1;SDS_P2;PMS_P1;PMS_P2;Temp;Humidity;BMP_temperature;BMP_pressure;BME280_temperature;BME280_humidity;BME280_pressure;Samples;Min_cycle;Max_cycle;Signal;HPM_P1;HPM_P2
2021/10/30 00:02:15;;;;;;;48.30;27.77;;;;;;;;;;5053619;28;20028;-54
2021/10/30 00:04:41;;;;;;;39.25;25.30;;;;;;;;;;5053492;28;20120;-55
2021/10/30 00:07:08;;;;;;;46.42;25.70;;;;;;;;;;5053851;28;20021;-55
2021/10/30 00:09:35;;;;;;;47.65;28.42;;;;;;;;;;5053254;28;20029;-54
2021/10/30 00:12:01;;;;;;;53.30;29.73;;;;;;;;;;5052156;28;20457;-54
2021/10/30 00:14:28;;;;;;;47.00;26.40;;;;;;;;;;5053542;28;20374;-54
2021/10/30 00:16:54;;;;;;;40.40;24.23;;;;;;;;;;5053274;28;20021;-54
2021/10/30 00:19:20;;;;;;;53.55;28.73;;;;;;;;;;5053093;28;20492;-56
2021/10/30 00:21:48;;;;;;;43.17;26.50;;;;;;;;;;5053445;28;20104;-55
2021/10/30 00:24:17;;;;;;;51.08;29.58;;;;;;;;;;5052736;28;20028;-55
2021/10/30 00:26:43;;;;;;;47.75;26.25;;;;;;;;;;5052964;28;20033;-54
2021/10/30 00:29:09;;;;;;;39.83;23.95;;;;;;;;;;5053229;28;20104;-56
2021/10/30 00:31:35;;;;;;;36.42;22.92;;;;;;;;;;5053209;28;20399;-55
2021/10/30 00:34:01;;;;;;;37.08;22.65;;;;;;;;;;5053060;28;20442;-55
2021/10/30 00:36:27;;;;;;;36.13;21.98;;;;;;;;;;5052929;28;20028;-55
2021/10/30 00:38:53;;;;;;;36.80;22.17;;;;;;;;;;5053023;28;20032;-55
2021/10/30 00:41:20;;;;;;;43.95;26.65;;;;;;;;;;5052903;28;20424;-53
2021/10/30 00:43:48;;;;;;;33.10;21.30;;;;;;;;;;5052907;28;20028;-55
2021/10/30 00:46:15;;;;;;;46.15;27.67;;;;;;;;;;5051280;28;20045;-55
2021/10/30 00:48:41;;;;;;;50.85;27.90;;;;;;;;;;5053110;28;20028;-55
2021/10/30 00:51:07;;;;;;;37.03;23.75;;;;;;;;;;5052898;28;20052;-56
2021/10/30 00:53:34;;;;;;;56.33;33.13;;;;;;;;;;5039305;28;20060;-57
2021/10/30 00:56:02;;;;;;;101.72;49.70;;;;;;;;;;5017234;28;20415;-58
2021/10/30 00:58:36;;;;;;;41.63;24.83;;;;;;;;;;5017413;28;20528;-57
2021/10/30 01:01:03;;;;;;;78.50;39.67;;;;;;;;;;5017311;28;21107;-55
2021/10/30 01:03:33;;;;;;;56.42;32.22;;;;;;;;;;5017591;28;20423;-57
2021/10/30 01:05:59;;;;;;;133.23;69.18;;;;;;;;;;5017197;28;20444;-54
2021/10/30 01:08:30;;;;;;;39.22;21.52;;;;;;;;;;5017267;28;20849;-55
2021/10/30 01:10:56;;;;;;;33.40;19.02;;;;;;;;;;5017727;28;20488;-54
2021/10/30 01:13:25;;;;;;;31.70;20.45;;;;;;;;;;5017171;28;20654;-58
2021/10/30 01:15:51;;;;;;;33.78;20.73;;;;;;;;;;5017168;28;20030;-58
2021/10/30 01:18:17;;;;;;;35.15;20.60;;;;;;;;;;5016911;28;20056;-58
2021/10/30 01:20:43;;;;;;;29.95;19.55;;;;;;;;;;5017446;28;20893;-56
2021/10/30 01:23:10;;;;;;;53.97;30.85;;;;;;;;;;5016661;28;20125;-58
2021/10/30 01:25:37;;;;;;;39.38;22.92;;;;;;;;;;5017694;28;20044;-56
2021/10/30 01:28:03;;;;;;;34.03;21.10;;;;;;;;;;5016917;28;20021;-55
2021/10/30 01:30:29;;;;;;;31.77;20.85;;;;;;;;;;5017014;28;20040;-55
2021/10/30 01:33:03;;;;;;;39.08;22.00;;;;;;;;;;5017016;28;20022;-55
2021/10/30 01:35:34;;;;;;;37.03;22.30;;;;;;;;;;5017217;28;20090;-55
2021/10/30 01:38:01;;;;;;;40.60;24.10;;;;;;;;;;5015840;28;20029;-55
2021/10/30 01:40:27;;;;;;;33.72;20.85;;;;;;;;;;5019643;28;20024;-55
2021/10/30 01:42:54;;;;;;;35.17;20.67;;;;;;;;;;5046462;28;20020;-57
2021/10/30 01:45:20;;;;;;;36.15;20.77;;;;;;;;;;5076325;28;20040;-56
2021/10/30 01:47:47;;;;;;;33.72;19.35;;;;;;;;;;5076167;28;20016;-56
2021/10/30 01:50:16;;;;;;;31.85;19.27;;;;;;;;;;5076169;28;20029;-56
2021/10/30 01:52:42;;;;;;;35.97;20.67;;;;;;;;;;5076109;28;20039;-56
2021/10/30 01:55:13;;;;;;;30.13;19.77;;;;;;;;;;5076368;28;20028;-56
2021/10/30 01:57:39;;;;;;;35.08;20.63;;;;;;;;;;5076163;28;20031;-56
2021/10/30 02:00:06;;;;;;;34.50;20.58;;;;;;;;;;5076021;28;20051;-56
2021/10/30 02:02:32;;;;;;;33.70;20.85;;;;;;;;;;5076040;28;20506;-56
2021/10/30 02:05:00;;;;;;;36.05;22.17;;;;;;;;;;5075767;28;20036;-56
2021/10/30 02:07:27;;;;;;;32.60;20.60;;;;;;;;;;5075665;28;20031;-57
2021/10/30 02:09:53;;;;;;;36.13;20.80;;;;;;;;;;5076251;28;20025;-56
2021/10/30 02:12:20;;;;;;;32.03;20.45;;;;;;;;;;5075691;28;20032;-57
2021/10/30 02:14:46;;;;;;;35.33;20.38;;;;;;;;;;5075701;28;20039;-56
2021/10/30 02:17:12;;;;;;;37.08;19.88;;;;;;;;;;5075794;28;20031;-57
2021/10/30 02:19:41;;;;;;;35.92;21.40;;;;;;;;;;5075392;28;20101;-56
2021/10/30 02:22:07;;;;;;;34.83;20.92;;;;;;;;;;5075401;28;20103;-56
2021/10/30 02:24:34;;;;;;;35.47;20.65;;;;;;;;;;5075753;28;20085;-56
2021/10/30 02:27:00;;;;;;;37.15;21.63;;;;;;;;;;5075524;28;20037;-57
2021/10/30 02:29:26;;;;;;;38.17;20.98;;;;;;;;;;5075411;28;20031;-56
2021/10/30 02:31:53;;;;;;;36.72;23.05;;;;;;;;;;5075354;28;20432;-56
2021/10/30 02:34:23;;;;;;;35.13;21.58;;;;;;;;;;5075317;28;20028;-56
2021/10/30 02:36:49;;;;;;;33.83;19.65;;;;;;;;;;5075135;28;20028;-55
2021/10/30 02:39:15;;;;;;;32.03;19.40;;;;;;;;;;5075427;28;20021;-56
2021/10/30 02:41:41;;;;;;;31.42;19.10;;;;;;;;;;5075288;28;20029;-55
2021/10/30 02:44:08;;;;;;;35.88;20.13;;;;;;;;;;5075472;28;20025;-56
2021/10/30 02:46:34;;;;;;;30.50;19.27;;;;;;;;;;5075069;28;20028;-55
2021/10/30 02:49:00;;;;;;;37.13;20.42;;;;;;;;;;5075231;28;20029;-55
2021/10/30 02:51:26;;;;;;;35.38;21.65;;;;;;;;;;5074533;28;20029;-56
2021/10/30 02:53:53;;;;;;;42.40;20.85;;;;;;;;;;5074999;28;20027;-55
2021/10/30 02:56:19;;;;;;;34.67;21.10;;;;;;;;;;5074963;28;20059;-56
2021/10/30 02:58:45;;;;;;;36.10;22.13;;;;;;;;;;5075076;28;20017;-56
2021/10/30 03:01:11;;;;;;;34.33;20.98;;;;;;;;;;5074860;28;20024;-59
2021/10/30 03:03:40;;;;;;;40.17;22.88;;;;;;;;;;5074758;28;20387;-57
2021/10/30 03:06:07;;;;;;;35.00;20.20;;;;;;;;;;5074643;28;20032;-57
2021/10/30 03:08:33;;;;;;;36.65;22.10;;;;;;;;;;5074514;28;20031;-56
2021/10/30 03:10:59;;;;;;;32.40;21.17;;;;;;;;;;5074790;28;20029;-56
2021/10/30 03:13:26;;;;;;;30.88;21.17;;;;;;;;;;5075100;28;20384;-56
2021/10/30 03:15:55;;;;;;;37.25;21.70;;;;;;;;;;5074464;28;20472;-55
2021/10/30 03:18:22;;;;;;;34.03;20.80;;;;;;;;;;5074149;28;20480;-56
2021/10/30 03:20:48;;;;;;;33.60;20.75;;;;;;;;;;5074296;28;20028;-56
2021/10/30 03:23:14;;;;;;;37.45;21.27;;;;;;;;;;5074411;28;20025;-56
2021/10/30 03:25:40;;;;;;;37.35;21.05;;;;;;;;;;5074240;28;20040;-56
2021/10/30 03:28:11;;;;;;;36.15;20.52;;;;;;;;;;5074277;28;20026;-56
2021/10/30 03:30:38;;;;;;;32.28;21.20;;;;;;;;;;5074079;28;20039;-56
2021/10/30 03:33:04;;;;;;;36.45;22.60;;;;;;;;;;5074182;28;20110;-56
2021/10/30 03:35:33;;;;;;;36.47;22.75;;;;;;;;;;5073921;28;20025;-55
2021/10/30 03:37:59;;;;;;;36.05;22.77;;;;;;;;;;5074311;28;20149;-55
2021/10/30 03:40:25;;;;;;;38.42;22.38;;;;;;;;;;5074162;28;20136;-56
2021/10/30 03:42:51;;;;;;;32.45;21.45;;;;;;;;;;5073932;28;20024;-55
2021/10/30 03:45:17;;;;;;;34.75;21.70;;;;;;;;;;5073735;28;20028;-55
2021/10/30 03:47:44;;;;;;;44.00;23.85;;;;;;;;;;5074113;28;20040;-55
2021/10/30 03:50:10;;;;;;;43.58;26.58;;;;;;;;;;5073754;28;20601;-55
2021/10/30 03:52:41;;;;;;;42.80;25.40;;;;;;;;;;5073967;28;20463;-55
2021/10/30 03:55:07;;;;;;;47.38;28.42;;;;;;;;;;5073581;28;20465;-55
2021/10/30 03:57:34;;;;;;;49.38;29.05;;;;;;;;;;5073732;28;20128;-55
2021/10/30 04:00:00;;;;;;;40.13;21.90;;;;;;;;;;5074070;28;20031;-56
2021/10/30 04:02:28;;;;;;;39.75;24.00;;;;;;;;;;5072891;28;20480;-56
2021/10/30 04:04:55;;;;;;;34.13;21.40;;;;;;;;;;5073534;28;20506;-55
2021/10/30 04:07:21;;;;;;;40.67;23.50;;;;;;;;;;5073385;28;20045;-55
2021/10/30 04:09:47;;;;;;;38.88;22.73;;;;;;;;;;5073761;28;20028;-55
2021/10/30 04:12:13;;;;;;;39.78;24.85;;;;;;;;;;5073702;28;20400;-55
2021/10/30 04:14:39;;;;;;;37.72;23.23;;;;;;;;;;5073561;28;20025;-55
2021/10/30 04:17:05;;;;;;;38.65;24.05;;;;;;;;;;5073707;28;20048;-55
2021/10/30 04:19:32;;;;;;;39.15;23.58;;;;;;;;;;5073284;28;20127;-56
2021/10/30 04:22:00;;;;;;;40.33;22.58;;;;;;;;;;5073198;28;20127;-55
2021/10/30 04:24:26;;;;;;;43.05;25.75;;;;;;;;;;5073328;28;20044;-56
2021/10/30 04:26:52;;;;;;;44.15;24.55;;;;;;;;;;5073377;28;20115;-56
2021/10/30 04:29:18;;;;;;;46.33;28.20;;;;;;;;;;5073469;28;20114;-55
2021/10/30 04:31:47;;;;;;;49.03;27.52;;;;;;;;;;5073338;28;20040;-56
2021/10/30 04:34:20;;;;;;;47.35;25.55;;;;;;;;;;5073361;28;20075;-56
2021/10/30 04:36:49;;;;;;;56.33;32.20;;;;;;;;;;5073412;28;20033;-55
2021/10/30 04:39:18;;;;;;;55.13;29.75;;;;;;;;;;5073406;28;20043;-55
2021/10/30 04:41:45;;;;;;;40.83;25.55;;;;;;;;;;5073311;28;20027;-56
2021/10/30 04:44:11;;;;;;;50.45;31.20;;;;;;;;;;5073688;28;20077;-55
2021/10/30 04:46:37;;;;;;;47.85;26.90;;;;;;;;;;5073148;28;20038;-55
2021/10/30 04:49:04;;;;;;;45.90;28.35;;;;;;;;;;5073130;28;20430;-55
2021/10/30 04:51:30;;;;;;;47.72;28.17;;;;;;;;;;5073274;28;20039;-55
2021/10/30 04:53:56;;;;;;;46.92;27.90;;;;;;;;;;5073130;28;20107;-56
2021/10/30 04:56:22;;;;;;;44.30;26.95;;;;;;;;;;5073422;28;20024;-55
2021/10/30 04:58:48;;;;;;;40.35;26.48;;;;;;;;;;5073144;28;20033;-55
2021/10/30 05:01:16;;;;;;;47.10;28.30;;;;;;;;;;5073000;28;20016;-55
2021/10/30 05:03:43;;;;;;;55.40;30.75;;;;;;;;;;5073137;28;20031;-55
2021/10/30 05:06:10;;;;;;;54.92;30.90;;;;;;;;;;5073152;28;20657;-56
2021/10/30 05:08:36;;;;;;;63.45;31.42;;;;;;;;;;5071974;28;20037;-55
2021/10/30 05:11:03;;;;;;;51.58;27.92;;;;;;;;;;5072996;28;20025;-55
2021/10/30 05:13:29;;;;;;;61.20;33.35;;;;;;;;;;5074097;28;20031;-55
2021/10/30 05:15:55;;;;;;;58.35;31.20;;;;;;;;;;5076844;28;20025;-54
2021/10/30 05:18:22;;;;;;;54.88;28.88;;;;;;;;;;5076514;28;20040;-55
2021/10/30 05:20:53;;;;;;;64.25;34.85;;;;;;;;;;5076477;28;20472;-56
2021/10/30 05:23:19;;;;;;;48.58;27.42;;;;;;;;;;5076771;28;20032;-55
2021/10/30 05:25:45;;;;;;;45.67;28.23;;;;;;;;;;5076554;28;20112;-55
2021/10/30 05:28:11;;;;;;;63.38;35.47;;;;;;;;;;5074244;28;20028;-56
2021/10/30 05:30:38;;;;;;;76.35;40.88;;;;;;;;;;5055960;28;20031;-55
2021/10/30 05:33:04;;;;;;;51.50;29.13;;;;;;;;;;5055876;28;20477;-54
2021/10/30 05:35:30;;;;;;;59.72;33.00;;;;;;;;;;5055769;28;20025;-55
2021/10/30 05:37:56;;;;;;;46.03;27.52;;;;;;;;;;5055961;28;20582;-54
2021/10/30 05:40:22;;;;;;;52.83;32.20;;;;;;;;;;5056039;28;20082;-55
2021/10/30 05:42:48;;;;;;;49.97;31.42;;;;;;;;;;5055799;28;20017;-55
2021/10/30 05:45:17;;;;;;;49.63;32.03;;;;;;;;;;5055674;28;20039;-54
2021/10/30 05:47:43;;;;;;;47.90;30.00;;;;;;;;;;5055639;28;20104;-53
2021/10/30 05:50:10;;;;;;;46.72;29.42;;;;;;;;;;5049183;28;20075;-56
2021/10/30 05:52:36;;;;;;;44.97;29.65;;;;;;;;;;5020794;28;20140;-55
2021/10/30 05:55:02;;;;;;;54.88;31.88;;;;;;;;;;5020721;28;20017;-57
2021/10/30 05:57:33;;;;;;;58.95;31.05;;;;;;;;;;5035313;28;20464;-53
2021/10/30 05:59:59;;;;;;;56.42;31.75;;;;;;;;;;5021283;28;20029;-55
2021/10/30 06:02:25;;;;;;;57.45;33.55;;;;;;;;;;5019968;28;20025;-57
2021/10/30 06:04:54;;;;;;;48.83;30.85;;;;;;;;;;5019896;28;20029;-54
2021/10/30 06:07:20;;;;;;;38.67;25.77;;;;;;;;;;5020150;28;20029;-56
2021/10/30 06:09:49;;;;;;;45.97;27.02;;;;;;;;;;5019861;28;20017;-54
2021/10/30 06:12:15;;;;;;;45.13;28.08;;;;;;;;;;5019791;28;20033;-57
2021/10/30 06:14:41;;;;;;;56.58;29.40;;;;;;;;;;5019995;28;20029;-54
2021/10/30 06:17:10;;;;;;;48.58;29.08;;;;;;;;;;5020192;28;20032;-54
2021/10/30 06:19:36;;;;;;;42.20;26.23;;;;;;;;;;5019983;28;20052;-53
2021/10/30 06:22:02;;;;;;;41.00;25.77;;;;;;;;;;5019520;28;20033;-58
2021/10/30 06:24:28;;;;;;;38.55;23.77;;;;;;;;;;5020157;28;20509;-56
2021/10/30 06:26:59;;;;;;;42.30;25.27;;;;;;;;;;5019513;28;20083;-57
2021/10/30 06:29:27;;;;;;;42.08;25.80;;;;;;;;;;5020011;28;20562;-56
2021/10/30 06:31:54;;;;;;;36.72;23.30;;;;;;;;;;5019356;28;20362;-55
2021/10/30 06:34:22;;;;;;;40.13;23.60;;;;;;;;;;5020032;28;21036;-54
2021/10/30 06:36:48;;;;;;;37.53;22.65;;;;;;;;;;5019817;28;20412;-54
2021/10/30 06:39:17;;;;;;;35.60;22.40;;;;;;;;;;5019869;28;20025;-57
2021/10/30 06:41:43;;;;;;;34.80;23.02;;;;;;;;;;5020488;28;20025;-53
2021/10/30 06:44:09;;;;;;;33.88;21.15;;;;;;;;;;5020033;28;20029;-58
2021/10/30 06:46:38;;;;;;;34.25;20.58;;;;;;;;;;5019550;28;20627;-57
2021/10/30 06:49:08;;;;;;;40.75;20.33;;;;;;;;;;5019904;28;20075;-60
2021/10/30 06:51:34;;;;;;;33.67;23.15;;;;;;;;;;5021521;28;20207;-53
2021/10/30 06:54:03;;;;;;;35.70;21.70;;;;;;;;;;5020816;28;20036;-62
2021/10/30 06:56:29;;;;;;;32.95;23.10;;;;;;;;;;5021880;28;20052;-59
2021/10/30 06:58:55;;;;;;;33.90;21.75;;;;;;;;;;5020112;28;20748;-53
2021/10/30 07:01:22;;;;;;;33.78;21.23;;;;;;;;;;5020739;28;20451;-54
2021/10/30 07:03:49;;;;;;;31.98;20.63;;;;;;;;;;5019582;28;20083;-59
2021/10/30 07:06:15;;;;;;;32.35;19.52;;;;;;;;;;5019814;28;20527;-54
2021/10/30 07:08:41;;;;;;;32.88;20.23;;;;;;;;;;5020522;28;20500;-54
2021/10/30 07:11:07;;;;;;;27.77;19.92;;;;;;;;;;5019324;28;20031;-54
2021/10/30 07:13:33;;;;;;;32.50;20.73;;;;;;;;;;5019814;28;20033;-58
2021/10/30 07:15:59;;;;;;;29.67;20.38;;;;;;;;;;5019142;28;20045;-56
2021/10/30 07:18:25;;;;;;;32.63;20.88;;;;;;;;;;5019626;28;20485;-53
2021/10/30 07:20:52;;;;;;;29.20;20.20;;;;;;;;;;5019403;28;20057;-52
2021/10/30 07:23:18;;;;;;;30.05;20.80;;;;;;;;;;5018933;28;20576;-56
2021/10/30 07:25:44;;;;;;;27.92;20.88;;;;;;;;;;5020594;28;20585;-61
2021/10/30 07:28:11;;;;;;;33.28;20.73;;;;;;;;;;5021407;28;20033;-62
2021/10/30 07:30:37;;;;;;;31.83;21.88;;;;;;;;;;5026148;28;20030;-57
2021/10/30 07:33:03;;;;;;;28.33;19.58;;;;;;;;;;5032951;28;20515;-62
2021/10/30 07:35:30;;;;;;;28.08;20.45;;;;;;;;;;5030200;28;20032;-57
2021/10/30 07:38:00;;;;;;;28.98;19.80;;;;;;;;;;5027390;28;20025;-59
2021/10/30 07:40:27;;;;;;;33.53;18.25;;;;;;;;;;5025117;28;20646;-56
2021/10/30 07:42:53;;;;;;;24.92;18.05;;;;;;;;;;5025029;28;20036;-61
2021/10/30 07:45:20;;;;;;;27.58;17.27;;;;;;;;;;5023596;28;20451;-56
2021/10/30 07:47:47;;;;;;;27.55;17.98;;;;;;;;;;5023867;28;20508;-56
2021/10/30 07:50:13;;;;;;;25.08;15.75;;;;;;;;;;5022981;28;20043;-57
2021/10/30 07:52:39;;;;;;;22.42;17.35;;;;;;;;;;5022741;28;20028;-54
2021/10/30 07:55:06;;;;;;;24.50;16.40;;;;;;;;;;5022912;28;20036;-61
2021/10/30 07:57:32;;;;;;;21.65;14.93;;;;;;;;;;5024644;28;20032;-61
2021/10/30 07:59:59;;;;;;;22.63;14.35;;;;;;;;;;5020930;28;20021;-55
2021/10/30 08:02:25;;;;;;;21.73;15.05;;;;;;;;;;5019550;28;20053;-55
2021/10/30 08:04:53;;;;;;;22.45;15.30;;;;;;;;;;5019308;28;20531;-58
2021/10/30 08:07:22;;;;;;;24.40;16.58;;;;;;;;;;5018158;28;20044;-55
2021/10/30 08:09:49;;;;;;;21.55;13.05;;;;;;;;;;5018955;28;20059;-55
2021/10/30 08:12:15;;;;;;;22.15;13.02;;;;;;;;;;5017832;28;20040;-65
2021/10/30 08:14:42;;;;;;;21.40;14.20;;;;;;;;;;5019092;28;20462;-55
2021/10/30 08:17:11;;;;;;;19.33;13.82;;;;;;;;;;5018952;28;20072;-56
2021/10/30 08:19:37;;;;;;;18.52;12.98;;;;;;;;;;5018300;28;20037;-55
2021/10/30 08:22:03;;;;;;;19.20;13.38;;;;;;;;;;5017905;28;20493;-56
2021/10/30 08:24:29;;;;;;;22.38;14.63;;;;;;;;;;5018869;28;20025;-55
2021/10/30 08:26:56;;;;;;;19.20;13.23;;;;;;;;;;5017988;28;20426;-55
2021/10/30 08:29:22;;;;;;;22.05;13.45;;;;;;;;;;5021831;28;20025;-60
2021/10/30 08:31:48;;;;;;;20.52;13.75;;;;;;;;;;5027594;28;20061;-55
2021/10/30 08:34:14;;;;;;;21.50;13.95;;;;;;;;;;5020245;28;20029;-56
2021/10/30 08:36:43;;;;;;;22.05;12.88;;;;;;;;;;5029270;28;20029;-57
2021/10/30 08:39:09;;;;;;;18.98;12.73;;;;;;;;;;5020408;28;20041;-56
2021/10/30 08:41:36;;;;;;;17.55;11.25;;;;;;;;;;5020176;28;20087;-56
2021/10/30 08:44:02;;;;;;;16.52;11.98;;;;;;;;;;5017602;28;20025;-55
2021/10/30 08:46:29;;;;;;;18.83;12.40;;;;;;;;;;5017436;28;20029;-61
2021/10/30 08:48:55;;;;;;;27.25;15.07;;;;;;;;;;5019172;28;20530;-55
2021/10/30 08:51:21;;;;;;;20.95;13.80;;;;;;;;;;5021823;28;20033;-58
2021/10/30 08:53:48;;;;;;;21.50;10.48;;;;;;;;;;5021423;28;20036;-56
2021/10/30 08:56:14;;;;;;;17.05;9.82;;;;;;;;;;5021827;28;20381;-61
2021/10/30 08:58:40;;;;;;;13.98;8.80;;;;;;;;;;5026041;28;20052;-58
2021/10/30 09:01:08;;;;;;;13.93;7.78;;;;;;;;;;5027178;28;20423;-57
2021/10/30 09:03:37;;;;;;;19.40;11.43;;;;;;;;;;5022091;28;20051;-55
2021/10/30 09:06:03;;;;;;;17.10;11.30;;;;;;;;;;5021856;28;20018;-56
2021/10/30 09:08:30;;;;;;;15.80;9.45;;;;;;;;;;5021441;28;20028;-57
2021/10/30 09:10:57;;;;;;;13.57;8.98;;;;;;;;;;5021012;28;20740;-56
2021/10/30 09:13:27;;;;;;;16.92;8.82;;;;;;;;;;5022057;28;20102;-57
2021/10/30 09:15:54;;;;;;;15.27;8.32;;;;;;;;;;5021471;28;20522;-58
2021/10/30 09:18:27;;;;;;;17.83;8.82;;;;;;;;;;5021482;28;20049;-57
2021/10/30 09:20:54;;;;;;;17.25;9.65;;;;;;;;;;5021524;28;20087;-57
2021/10/30 09:23:20;;;;;;;20.15;11.80;;;;;;;;;;5020770;28;20036;-58
2021/10/30 09:25:51;;;;;;;29.05;14.35;;;;;;;;;;5021527;28;20030;-57
2021/10/30 09:28:21;;;;;;;25.80;11.02;;;;;;;;;;5021761;28;20037;-57
2021/10/30 09:30:48;;;;;;;16.15;10.00;;;;;;;;;;5020927;28;20375;-57
2021/10/30 09:33:14;;;;;;;20.33;10.30;;;;;;;;;;5020720;28;20520;-58
2021/10/30 09:35:41;;;;;;;15.82;8.68;;;;;;;;;;5020801;28;20566;-57
2021/10/30 09:38:10;;;;;;;17.17;10.85;;;;;;;;;;5021320;28;20025;-57
2021/10/30 09:40:36;;;;;;;21.42;12.00;;;;;;;;;;5020628;28;20029;-58
2021/10/30 09:43:08;;;;;;;31.20;10.10;;;;;;;;;;5021710;28;20437;-58
2021/10/30 09:45:37;;;;;;;17.83;10.50;;;;;;;;;;5020696;28;20392;-58
2021/10/30 09:48:03;;;;;;;15.60;8.95;;;;;;;;;;5020545;28;20025;-60
2021/10/30 09:50:32;;;;;;;19.15;9.25;;;;;;;;;;5020321;28;20029;-54
2021/10/30 09:52:59;;;;;;;17.45;9.57;;;;;;;;;;5020521;28;20112;-54
2021/10/30 09:55:26;;;;;;;18.80;9.60;;;;;;;;;;5020511;28;20026;-54
2021/10/30 09:57:59;;;;;;;18.73;10.00;;;;;;;;;;5020730;28;20374;-55
2021/10/30 10:00:28;;;;;;;17.13;9.20;;;;;;;;;;5019351;28;20059;-55
2021/10/30 10:02:56;;;;;;;26.05;10.60;;;;;;;;;;5019975;28;20029;-55
2021/10/30 10:05:22;;;;;;;18.95;10.20;;;;;;;;;;5033312;28;20056;-56
2021/10/30 10:07:52;;;;;;;17.58;9.38;;;;;;;;;;5055773;28;20044;-55
2021/10/30 10:10:19;;;;;;;14.65;8.63;;;;;;;;;;5056024;28;20048;-56
2021/10/30 10:12:45;;;;;;;18.98;8.88;;;;;;;;;;5055686;28;20021;-56
2021/10/30 10:15:16;;;;;;;15.10;8.85;;;;;;;;;;5055834;28;20412;-56
2021/10/30 10:17:43;;;;;;;15.90;8.23;;;;;;;;;;5055858;28;20017;-56
2021/10/30 10:20:09;;;;;;;17.52;8.52;;;;;;;;;;5055418;28;20052;-56
2021/10/30 10:22:36;;;;;;;24.70;7.82;;;;;;;;;;5055628;28;20393;-56
2021/10/30 10:25:21;;;;;;;16.50;7.93;;;;;;;;;;5056191;28;20643;-56
2021/10/30 10:27:48;;;;;;;13.52;7.50;;;;;;;;;;5055376;28;20139;-55
2021/10/30 10:30:14;;;;;;;15.50;7.20;;;;;;;;;;5055659;28;20017;-56
2021/10/30 10:32:40;;;;;;;15.52;8.45;;;;;;;;;;5055501;28;20029;-55
2021/10/30 10:35:06;;;;;;;13.15;7.53;;;;;;;;;;5055912;28;20032;-55
2021/10/30 10:37:33;;;;;;;17.02;8.18;;;;;;;;;;5055180;28;20032;-55
2021/10/30 10:40:05;;;;;;;14.45;8.73;;;;;;;;;;5055284;28;20440;-55
2021/10/30 10:42:31;;;;;;;;;;;;;;;;;;5055629;28;20029;-58
2021/10/30 10:44:57;;;;;;;16.38;8.98;;;;;;;;;;5055318;28;19912;-56
2021/10/30 10:47:35;;;;;;;19.25;8.27;;;;;;;;;;5054894;28;20036;-56
2021/10/30 10:50:13;;;;;;;13.93;8.23;;;;;;;;;;5055008;28;20104;-56
2021/10/30 10:52:44;;;;;;;16.10;8.35;;;;;;;;;;5054881;28;20488;-55
2021/10/30 10:55:10;;;;;;;15.82;8.48;;;;;;;;;;5054988;28;20049;-55
2021/10/30 10:57:44;;;;;;;14.32;8.23;;;;;;;;;;5054864;28;20104;-55
2021/10/30 11:00:12;;;;;;;15.15;8.23;;;;;;;;;;5054886;28;20029;-55
2021/10/30 11:02:39;;;;;;;14.40;7.20;;;;;;;;;;5054748;28;20499;-55
2021/10/30 11:05:08;;;;;;;13.70;8.07;;;;;;;;;;5054899;28;20032;-55
2021/10/30 11:07:58;;;;;;;13.15;7.85;;;;;;;;;;5054727;28;20071;-56
2021/10/30 11:10:26;;;;;;;;;;;;;;;;;;5055264;28;20025;-56
2021/10/30 11:13:12;;;;;;;13.55;7.28;;;;;;;;;;5054265;28;19913;-56
2021/10/30 11:15:38;;;;;;;10.95;7.50;;;;;;;;;;5054546;28;20048;-56
2021/10/30 11:18:13;;;;;;;13.55;7.68;;;;;;;;;;5053096;28;20376;-55
2021/10/30 11:20:40;;;;;;;28.77;8.45;;;;;;;;;;5054697;28;20480;-55
2021/10/30 11:23:10;;;;;;;13.73;7.65;;;;;;;;;;5054435;28;20405;-55
2021/10/30 11:25:36;;;;;;;13.23;6.65;;;;;;;;;;5054444;28;20101;-57
2021/10/30 11:28:03;;;;;;;12.43;7.82;;;;;;;;;;5054542;28;20033;-56
2021/10/30 11:30:32;;;;;;;14.50;7.45;;;;;;;;;;5053653;28;20066;-61
2021/10/30 11:33:17;;;;;;;14.77;8.23;;;;;;;;;;5052722;28;20488;-56
2021/10/30 11:36:02;;;;;;;13.55;6.60;;;;;;;;;;5052865;28;20025;-55
2021/10/30 11:38:30;;;;;;;16.83;8.60;;;;;;;;;;5053035;28;20036;-56
2021/10/30 11:40:57;;;;;;;19.63;7.72;;;;;;;;;;5053546;28;20063;-56
2021/10/30 11:43:30;;;;;;;11.45;7.53;;;;;;;;;;5053459;28;20032;-56
2021/10/30 11:46:09;;;;;;;11.80;6.57;;;;;;;;;;5053685;28;20017;-55
2021/10/30 11:48:42;;;;;;;13.82;7.07;;;;;;;;;;5053458;28;20025;-55
2021/10/30 11:51:23;;;;;;;10.85;7.28;;;;;;;;;;5053686;28;20021;-55
2021/10/30 11:53:52;;;;;;;10.50;6.82;;;;;;;;;;5052159;28;20057;-55
2021/10/30 11:56:24;;;;;;;16.45;8.20;;;;;;;;;;5050762;28;20487;-55
2021/10/30 11:58:51;;;;;;;14.48;7.25;;;;;;;;;;5053528;28;20029;-55
2021/10/30 12:01:31;;;;;;;16.55;8.02;;;;;;;;;;5053387;28;20043;-55
2021/10/30 12:04:18;;;;;;;15.25;7.20;;;;;;;;;;5052074;28;20100;-56
2021/10/30 12:06:49;;;;;;;15.65;8.90;;;;;;;;;;5051674;28;20470;-55
2021/10/30 12:09:35;;;;;;;24.38;8.80;;;;;;;;;;5050654;28;20023;-55
2021/10/30 12:12:03;;;;;;;22.05;9.20;;;;;;;;;;5051342;28;20103;-55
2021/10/30 12:14:29;;;;;;;12.25;8.05;;;;;;;;;;5053441;28;20032;-55
2021/10/30 12:17:06;;;;;;;14.82;8.48;;;;;;;;;;5053255;28;20025;-55
2021/10/30 12:19:34;;;;;;;14.52;7.93;;;;;;;;;;5052961;28;20045;-55
2021/10/30 12:22:18;;;;;;;13.73;7.93;;;;;;;;;;5053543;28;20037;-55
2021/10/30 12:24:45;;;;;;;17.83;7.55;;;;;;;;;;5052683;28;20087;-55
2021/10/30 12:27:12;;;;;;;20.20;7.65;;;;;;;;;;5053211;28;20078;-55
2021/10/30 12:29:45;;;;;;;13.43;7.65;;;;;;;;;;5053249;28;20154;-55
2021/10/30 12:32:15;;;;;;;19.77;7.40;;;;;;;;;;5053260;28;20029;-55
2021/10/30 12:34:43;;;;;;;13.77;8.00;;;;;;;;;;5053528;28;20021;-54
2021/10/30 12:37:11;;;;;;;17.58;8.35;;;;;;;;;;5053246;28;20032;-55
2021/10/30 12:39:37;;;;;;;15.23;8.10;;;;;;;;;;5053210;28;20036;-55
2021/10/30 12:42:04;;;;;;;14.68;7.63;;;;;;;;;;5053292;28;20087;-55
2021/10/30 12:44:31;;;;;;;18.70;10.38;;;;;;;;;;5053108;28;20079;-55
2021/10/30 12:47:00;;;;;;;12.65;7.28;;;;;;;;;;5053202;28;20154;-55
2021/10/30 12:49:28;;;;;;;11.77;7.57;;;;;;;;;;5053403;28;20029;-54
2021/10/30 12:51:58;;;;;;;16.60;7.85;;;;;;;;;;5053168;28;20040;-55
2021/10/30 12:54:26;;;;;;;13.60;7.97;;;;;;;;;;5052949;28;20021;-55
2021/10/30 12:56:52;;;;;;;12.90;8.88;;;;;;;;;;5053017;28;20029;-54
2021/10/30 12:59:26;;;;;;;12.48;7.07;;;;;;;;;;5052910;28;20048;-55
2021/10/30 13:01:55;;;;;;;14.18;7.43;;;;;;;;;;5053478;28;20025;-55
2021/10/30 13:04:29;;;;;;;12.30;8.73;;;;;;;;;;5053065;28;20025;-55
2021/10/30 13:07:02;;;;;;;14.57;7.85;;;;;;;;;;5052939;28;20464;-55
2021/10/30 13:09:29;;;;;;;13.65;8.07;;;;;;;;;;5052986;28;20028;-55
2021/10/30 13:11:55;;;;;;;13.15;7.80;;;;;;;;;;5053122;28;20043;-54
2021/10/30 13:14:22;;;;;;;12.25;7.70;;;;;;;;;;5052867;28;20029;-55
2021/10/30 13:16:50;;;;;;;13.57;7.28;;;;;;;;;;5052997;28;20023;-54
2021/10/30 13:19:17;;;;;;;19.45;8.18;;;;;;;;;;5052629;28;20507;-55
2021/10/30 13:21:43;;;;;;;10.90;7.68;;;;;;;;;;5052915;28;20025;-55
2021/10/30 13:24:09;;;;;;;12.35;7.97;;;;;;;;;;5052772;28;20467;-55
2021/10/30 13:26:36;;;;;;;13.82;7.88;;;;;;;;;;5052957;28;20029;-60
2021/10/30 13:29:05;;;;;;;13.90;7.70;;;;;;;;;;5053155;28;20103;-54
2021/10/30 13:31:33;;;;;;;21.05;10.73;;;;;;;;;;5052748;28;20622;-55
2021/10/30 13:34:00;;;;;;;14.05;7.72;;;;;;;;;;5052988;28;20033;-54
2021/10/30 13:36:26;;;;;;;14.25;8.60;;;;;;;;;;5056461;28;20104;-54
2021/10/30 13:38:53;;;;;;;15.48;8.05;;;;;;;;;;5056536;28;20082;-55
2021/10/30 13:41:20;;;;;;;30.25;8.60;;;;;;;;;;5056305;28;20469;-56
2021/10/30 13:43:49;;;;;;;13.70;7.30;;;;;;;;;;5056459;28;20044;-55
2021/10/30 13:46:18;;;;;;;13.55;6.82;;;;;;;;;;5056497;28;20082;-55
2021/10/30 13:48:46;;;;;;;13.98;7.50;;;;;;;;;;5056409;28;20079;-55
2021/10/30 13:51:13;;;;;;;13.90;7.38;;;;;;;;;;5056119;28;20029;-55
2021/10/30 13:53:39;;;;;;;16.40;7.15;;;;;;;;;;5056066;28;20114;-55
2021/10/30 13:56:05;;;;;;;11.30;6.90;;;;;;;;;;5056270;28;20021;-54
2021/10/30 13:58:31;;;;;;;10.68;6.85;;;;;;;;;;5056177;28;20036;-55
2021/10/30 14:00:57;;;;;;;15.00;7.57;;;;;;;;;;5056219;28;20600;-55
2021/10/30 14:03:23;;;;;;;11.43;5.95;;;;;;;;;;5055938;28;20025;-55
2021/10/30 14:05:52;;;;;;;14.85;7.75;;;;;;;;;;5055869;28;20071;-55
2021/10/30 14:08:19;;;;;;;12.80;7.13;;;;;;;;;;5056065;28;20039;-55
2021/10/30 14:10:45;;;;;;;13.70;7.35;;;;;;;;;;5055743;28;20029;-55
2021/10/30 14:13:11;;;;;;;14.48;8.00;;;;;;;;;;5056099;28;20029;-55
2021/10/30 14:15:38;;;;;;;15.18;8.48;;;;;;;;;;5055770;28;20017;-55
2021/10/30 14:18:04;;;;;;;17.40;7.22;;;;;;;;;;5055543;28;20108;-55
2021/10/30 14:20:30;;;;;;;14.88;8.52;;;;;;;;;;5055690;28;20032;-55
2021/10/30 14:22:56;;;;;;;12.90;8.20;;;;;;;;;;5055494;28;20029;-55
2021/10/30 14:25:22;;;;;;;15.73;8.02;;;;;;;;;;5055542;28;20017;-55